sensor_id;sensor_type;location;lat;lon;timestamp;temperature;humidity
9099;DHT22;4585;51.414;6.776;2022-09-01T00:00:14;18.30;99.90
9099;DHT22;4585;51.414;6.776;2022-09-01T00:02:45;18.20;1.00
9099;DHT22;4585;51.414;6.776;2022-09-01T00:05:20;18.20;1.00
9099;DHT22;4585;51.414;6.776;2022-09-01T00:07:46;18.10;1.00
9099;DHT22;4585;51.414;6.776;2022-09-01T00:10:16;18.10;1.00
9099;DHT22;4585;51.414;6.776;2022-09-01T00:12:42;18.00;1.00
9099;DHT22;4585;51.414;6.776;2022-09-01T00:15:11;17.90;1.00
9099;DHT22;4585;51.414;6.776;2022-09-01T00:17:38;17.80;1.00
9099;DHT22;4585;51.414;6.776;2022-09-01T00:20:10;17.70;1.00
9099;DHT22;4585;51.414;6.776;2022-09-01T00:22:42;17.70;1.00
9099;DHT22;4585;51.414;6.776;2022-09-01T00:25:14;17.60;1.00
9099;DHT22;4585;51.414;6.776;2022-09-01T00:27:42;17.60;1.00
9099;DHT22;4585;51.414;6.776;2022-09-01T00:30:17;17.60;1.00
9099;DHT22;4585;51.414;6.776;2022-09-01T00:32:54;17.40;99.90
9099;DHT22;4585;51.414;6.776;2022-09-01T00:35:27;17.30;99.90
9099;DHT22;4585;51.414;6.776;2022-09-01T00:37:53;17.20;99.90
9099;DHT22;4585;51.414;6.776;2022-09-01T00:40:31;17.10;99.90
9099;DHT22;4585;51.414;6.776;2022-09-01T00:43:00;17.00;1.00
9099;DHT22;4585;51.414;6.776;2022-09-01T00:45:32;17.00;1.00
9099;DHT22;4585;51.414;6.776;2022-09-01T00:47:58;17.10;1.00
9099;DHT22;4585;51.414;6.776;2022-09-01T00:50:30;17.10;99.90
9099;DHT22;4585;51.414;6.776;2022-09-01T00:53:00;17.10;1.00
9099;DHT22;4585;51.414;6.776;2022-09-01T00:55:36;17.10;1.00
9099;DHT22;4585;51.414;6.776;2022-09-01T00:58:09;17.20;1.00
9099;DHT22;4585;51.414;6.776;2022-09-01T01:00:41;17.10;1.00
9099;DHT22;4585;51.414;6.776;2022-09-01T01:03:11;17.10;1.00
9099;DHT22;4585;51.414;6.776;2022-09-01T01:05:51;17.10;1.00
9099;DHT22;4585;51.414;6.776;2022-09-01T01:08:29;17.20;99.90
9099;DHT22;4585;51.414;6.776;2022-09-01T01:11:15;17.20;1.00
9099;DHT22;4585;51.414;6.776;2022-09-01T01:13:59;17.20;1.00
9099;DHT22;4585;51.414;6.776;2022-09-01T01:16:30;17.20;1.00
9099;DHT22;4585;51.414;6.776;2022-09-01T01:18:59;17.20;99.90
9099;DHT22;4585;51.414;6.776;2022-09-01T01:21:44;17.20;99.90
9099;DHT22;4585;51.414;6.776;2022-09-01T01:24:32;17.30;99.90
9099;DHT22;4585;51.414;6.776;2022-09-01T01:27:04;17.20;99.90
9099;DHT22;4585;51.414;6.776;2022-09-01T01:29:37;17.20;1.00
9099;DHT22;4585;51.414;6.776;2022-09-01T01:32:14;17.20;99.90
9099;DHT22;4585;51.414;6.776;2022-09-01T01:34:40;17.20;1.00
9099;DHT22;4585;51.414;6.776;2022-09-01T01:37:16;17.10;1.00
9099;DHT22;4585;51.414;6.776;2022-09-01T01:39:43;17.10;1.00
9099;DHT22;4585;51.414;6.776;2022-09-01T01:42:11;17.10;1.00
9099;DHT22;4585;51.414;6.776;2022-09-01T01:44:41;17.10;1.00
9099;DHT22;4585;51.414;6.776;2022-09-01T01:47:12;17.00;1.00
9099;DHT22;4585;51.414;6.776;2022-09-01T01:49:41;16.90;1.00
9099;DHT22;4585;51.414;6.776;2022-09-01T01:52:13;16.90;1.00
9099;DHT22;4585;51.414;6.776;2022-09-01T01:54:45;16.90;1.00
9099;DHT22;4585;51.414;6.776;2022-09-01T01:57:14;16.90;1.00
9099;DHT22;4585;51.414;6.776;2022-09-01T01:59:48;16.80;99.90
9099;DHT22;4585;51.414;6.776;2022-09-01T02:02:15;16.70;99.90
9099;DHT22;4585;51.414;6.776;2022-09-01T02:04:46;16.70;99.90
9099;DHT22;4585;51.414;6.776;2022-09-01T02:07:20;16.60;99.90
9099;DHT22;4585;51.414;6.776;2022-09-01T02:09:52;16.50;1.00
9099;DHT22;4585;51.414;6.776;2022-09-01T02:12:27;16.50;1.00
9099;DHT22;4585;51.414;6.776;2022-09-01T02:14:58;16.40;1.00
9099;DHT22;4585;51.414;6.776;2022-09-01T02:17:31;16.30;1.00
9099;DHT22;4585;51.414;6.776;2022-09-01T02:20:07;16.20;1.00
9099;DHT22;4585;51.414;6.776;2022-09-01T02:22:41;16.20;1.00
9099;DHT22;4585;51.414;6.776;2022-09-01T02:25:11;16.20;1.00
9099;DHT22;4585;51.414;6.776;2022-09-01T02:27:47;16.20;1.00
9099;DHT22;4585;51.414;6.776;2022-09-01T02:30:22;16.10;1.00
9099;DHT22;4585;51.414;6.776;2022-09-01T02:32:51;16.00;1.00
9099;DHT22;4585;51.414;6.776;2022-09-01T02:35:21;16.00;1.00
9099;DHT22;4585;51.414;6.776;2022-09-01T02:37:51;15.90;1.00
9099;DHT22;4585;51.414;6.776;2022-09-01T02:40:23;15.90;99.90
9099;DHT22;4585;51.414;6.776;2022-09-01T02:42:53;15.80;30.20
9099;DHT22;4585;51.414;6.776;2022-09-01T02:45:22;15.80;1.00
9099;DHT22;4585;51.414;6.776;2022-09-01T02:47:53;15.70;74.80
9099;DHT22;4585;51.414;6.776;2022-09-01T02:50:22;15.60;99.90
9099;DHT22;4585;51.414;6.776;2022-09-01T02:52:52;15.60;99.90
9099;DHT22;4585;51.414;6.776;2022-09-01T02:55:21;15.60;99.90
9099;DHT22;4585;51.414;6.776;2022-09-01T02:57:51;15.60;99.90
9099;DHT22;4585;51.414;6.776;2022-09-01T03:00:27;15.50;99.90
9099;DHT22;4585;51.414;6.776;2022-09-01T03:03:01;15.40;1.00
9099;DHT22;4585;51.414;6.776;2022-09-01T03:05:31;15.40;1.00
9099;DHT22;4585;51.414;6.776;2022-09-01T03:08:05;15.30;1.00
9099;DHT22;4585;51.414;6.776;2022-09-01T03:10:38;15.20;1.00
9099;DHT22;4585;51.414;6.776;2022-09-01T03:13:16;15.20;1.00
9099;DHT22;4585;51.414;6.776;2022-09-01T03:15:49;15.20;1.00
9099;DHT22;4585;51.414;6.776;2022-09-01T03:18:21;15.20;1.00
9099;DHT22;4585;51.414;6.776;2022-09-01T03:20:50;15.20;1.00
9099;DHT22;4585;51.414;6.776;2022-09-01T03:23:22;15.20;1.00
9099;DHT22;4585;51.414;6.776;2022-09-01T03:25:57;15.20;99.90
9099;DHT22;4585;51.414;6.776;2022-09-01T03:28:27;15.20;1.00
9099;DHT22;4585;51.414;6.776;2022-09-01T03:30:57;15.20;1.00
9099;DHT22;4585;51.414;6.776;2022-09-01T03:33:25;15.30;1.00
9099;DHT22;4585;51.414;6.776;2022-09-01T03:35:56;15.30;99.90
9099;DHT22;4585;51.414;6.776;2022-09-01T03:38:30;15.30;1.00
9099;DHT22;4585;51.414;6.776;2022-09-01T03:41:04;15.30;1.00
9099;DHT22;4585;51.414;6.776;2022-09-01T03:43:35;15.30;1.00
9099;DHT22;4585;51.414;6.776;2022-09-01T03:46:04;15.20;1.00
9099;DHT22;4585;51.414;6.776;2022-09-01T03:48:34;15.20;1.00
9099;DHT22;4585;51.414;6.776;2022-09-01T03:51:04;15.10;1.00
9099;DHT22;4585;51.414;6.776;2022-09-01T03:53:37;15.20;1.00
9099;DHT22;4585;51.414;6.776;2022-09-01T03:56:09;15.20;99.90
9099;DHT22;4585;51.414;6.776;2022-09-01T03:58:36;15.20;1.00
9099;DHT22;4585;51.414;6.776;2022-09-01T04:01:11;15.20;1.00
9099;DHT22;4585;51.414;6.776;2022-09-01T04:03:38;15.20;1.00
9099;DHT22;4585;51.414;6.776;2022-09-01T04:06:08;15.10;1.00
9099;DHT22;4585;51.414;6.776;2022-09-01T04:08:38;15.10;1.00
9099;DHT22;4585;51.414;6.776;2022-09-01T04:11:12;15.10;1.00
9099;DHT22;4585;51.414;6.776;2022-09-01T04:13:46;15.10;1.00
9099;DHT22;4585;51.414;6.776;2022-09-01T04:16:23;15.00;1.00
9099;DHT22;4585;51.414;6.776;2022-09-01T04:19:14;14.90;1.00
9099;DHT22;4585;51.414;6.776;2022-09-01T04:21:48;14.90;1.00
9099;DHT22;4585;51.414;6.776;2022-09-01T04:24:22;14.80;1.00
9099;DHT22;4585;51.414;6.776;2022-09-01T04:26:50;14.60;1.00
9099;DHT22;4585;51.414;6.776;2022-09-01T04:29:20;14.60;99.90
9099;DHT22;4585;51.414;6.776;2022-09-01T04:32:02;14.50;54.00
9099;DHT22;4585;51.414;6.776;2022-09-01T04:34:32;14.40;99.90
9099;DHT22;4585;51.414;6.776;2022-09-01T04:37:13;14.30;99.90
9099;DHT22;4585;51.414;6.776;2022-09-01T04:39:43;14.20;99.90
9099;DHT22;4585;51.414;6.776;2022-09-01T04:42:16;14.20;1.00
9099;DHT22;4585;51.414;6.776;2022-09-01T04:44:46;14.10;1.00
9099;DHT22;4585;51.414;6.776;2022-09-01T04:47:13;14.10;1.00
9099;DHT22;4585;51.414;6.776;2022-09-01T04:49:44;14.00;1.00
9099;DHT22;4585;51.414;6.776;2022-09-01T04:52:14;13.90;1.00
9099;DHT22;4585;51.414;6.776;2022-09-01T04:54:40;13.90;1.00
9099;DHT22;4585;51.414;6.776;2022-09-01T04:57:09;13.80;1.00
9099;DHT22;4585;51.414;6.776;2022-09-01T04:59:35;13.70;1.00
9099;DHT22;4585;51.414;6.776;2022-09-01T05:02:12;13.70;1.00
9099;DHT22;4585;51.414;6.776;2022-09-01T05:04:44;13.70;1.00
9099;DHT22;4585;51.414;6.776;2022-09-01T05:07:16;13.70;1.00
9099;DHT22;4585;51.414;6.776;2022-09-01T05:09:45;13.70;1.00
9099;DHT22;4585;51.414;6.776;2022-09-01T05:12:10;13.70;1.00
9099;DHT22;4585;51.414;6.776;2022-09-01T05:14:43;13.70;1.00
9099;DHT22;4585;51.414;6.776;2022-09-01T05:17:17;13.80;1.00
9099;DHT22;4585;51.414;6.776;2022-09-01T05:19:49;13.90;99.90
9099;DHT22;4585;51.414;6.776;2022-09-01T05:22:22;14.00;99.90
9099;DHT22;4585;51.414;6.776;2022-09-01T05:24:58;14.10;99.90
9099;DHT22;4585;51.414;6.776;2022-09-01T05:27:42;14.10;99.90
9099;DHT22;4585;51.414;6.776;2022-09-01T05:30:21;14.10;99.90
9099;DHT22;4585;51.414;6.776;2022-09-01T05:32:55;14.20;99.90
9099;DHT22;4585;51.414;6.776;2022-09-01T05:35:24;14.30;99.90
9099;DHT22;4585;51.414;6.776;2022-09-01T05:37:55;14.30;99.90
9099;DHT22;4585;51.414;6.776;2022-09-01T05:40:27;14.40;99.90
9099;DHT22;4585;51.414;6.776;2022-09-01T05:42:58;14.40;99.90
9099;DHT22;4585;51.414;6.776;2022-09-01T05:45:28;14.50;99.90
9099;DHT22;4585;51.414;6.776;2022-09-01T05:47:56;14.50;27.00
9099;DHT22;4585;51.414;6.776;2022-09-01T05:50:24;14.60;1.00
9099;DHT22;4585;51.414;6.776;2022-09-01T05:52:58;14.70;1.00
9099;DHT22;4585;51.414;6.776;2022-09-01T05:55:30;14.70;1.00
9099;DHT22;4585;51.414;6.776;2022-09-01T05:58:02;14.70;1.00
9099;DHT22;4585;51.414;6.776;2022-09-01T06:00:35;14.70;99.90
9099;DHT22;4585;51.414;6.776;2022-09-01T06:03:12;14.70;82.80
9099;DHT22;4585;51.414;6.776;2022-09-01T06:05:42;14.80;62.90
9099;DHT22;4585;51.414;6.776;2022-09-01T06:08:10;14.90;99.90
9099;DHT22;4585;51.414;6.776;2022-09-01T06:10:41;14.90;1.00
9099;DHT22;4585;51.414;6.776;2022-09-01T06:13:08;15.00;1.00
9099;DHT22;4585;51.414;6.776;2022-09-01T06:15:37;15.00;1.00
9099;DHT22;4585;51.414;6.776;2022-09-01T06:18:13;15.00;1.00
9099;DHT22;4585;51.414;6.776;2022-09-01T06:20:45;15.10;1.00
9099;DHT22;4585;51.414;6.776;2022-09-01T06:23:15;15.20;1.00
9099;DHT22;4585;51.414;6.776;2022-09-01T06:25:45;15.30;1.00
9099;DHT22;4585;51.414;6.776;2022-09-01T06:28:19;15.40;1.00
9099;DHT22;4585;51.414;6.776;2022-09-01T06:30:54;15.50;1.00
9099;DHT22;4585;51.414;6.776;2022-09-01T06:33:22;15.60;1.00
9099;DHT22;4585;51.414;6.776;2022-09-01T06:35:55;15.80;99.90
9099;DHT22;4585;51.414;6.776;2022-09-01T06:38:21;16.00;99.90
9099;DHT22;4585;51.414;6.776;2022-09-01T06:40:58;16.20;99.90
9099;DHT22;4585;51.414;6.776;2022-09-01T06:43:24;16.30;99.90
9099;DHT22;4585;51.414;6.776;2022-09-01T06:46:00;16.50;54.10
9099;DHT22;4585;51.414;6.776;2022-09-01T06:48:27;16.70;1.00
9099;DHT22;4585;51.414;6.776;2022-09-01T06:50:59;16.80;1.00
9099;DHT22;4585;51.414;6.776;2022-09-01T06:53:32;17.00;99.90
9099;DHT22;4585;51.414;6.776;2022-09-01T06:56:01;17.20;99.90
9099;DHT22;4585;51.414;6.776;2022-09-01T06:58:31;17.30;75.20
9099;DHT22;4585;51.414;6.776;2022-09-01T07:01:05;17.40;1.00
9099;DHT22;4585;51.414;6.776;2022-09-01T07:03:31;17.60;1.00
9099;DHT22;4585;51.414;6.776;2022-09-01T07:06:09;17.80;1.00
9099;DHT22;4585;51.414;6.776;2022-09-01T07:08:38;17.80;1.00
9099;DHT22;4585;51.414;6.776;2022-09-01T07:11:08;18.00;1.00
9099;DHT22;4585;51.414;6.776;2022-09-01T07:13:34;18.10;99.90
9099;DHT22;4585;51.414;6.776;2022-09-01T07:16:04;18.30;99.90
9099;DHT22;4585;51.414;6.776;2022-09-01T07:18:31;18.40;99.90
9099;DHT22;4585;51.414;6.776;2022-09-01T07:20:59;18.60;99.90
9099;DHT22;4585;51.414;6.776;2022-09-01T07:23:35;18.70;1.00
9099;DHT22;4585;51.414;6.776;2022-09-01T07:26:05;18.80;1.00
9099;DHT22;4585;51.414;6.776;2022-09-01T07:28:36;18.90;1.00
9099;DHT22;4585;51.414;6.776;2022-09-01T07:31:16;19.00;1.00
9099;DHT22;4585;51.414;6.776;2022-09-01T07:33:48;19.20;1.00
9099;DHT22;4585;51.414;6.776;2022-09-01T07:36:21;19.40;1.00
9099;DHT22;4585;51.414;6.776;2022-09-01T07:38:50;19.60;99.90
9099;DHT22;4585;51.414;6.776;2022-09-01T07:41:25;19.70;99.90
9099;DHT22;4585;51.414;6.776;2022-09-01T07:43:54;19.80;99.90
9099;DHT22;4585;51.414;6.776;2022-09-01T07:46:23;19.90;99.90
9099;DHT22;4585;51.414;6.776;2022-09-01T07:48:55;19.90;99.90
9099;DHT22;4585;51.414;6.776;2022-09-01T07:51:27;20.00;64.90
9099;DHT22;4585;51.414;6.776;2022-09-01T07:54:02;20.10;1.00
9099;DHT22;4585;51.414;6.776;2022-09-01T07:56:34;20.30;40.90
9099;DHT22;4585;51.414;6.776;2022-09-01T07:59:01;20.50;45.70
9099;DHT22;4585;51.414;6.776;2022-09-01T08:01:32;20.60;1.00
9099;DHT22;4585;51.414;6.776;2022-09-01T08:04:04;20.60;10.00
9099;DHT22;4585;51.414;6.776;2022-09-01T08:06:36;20.60;1.00
9099;DHT22;4585;51.414;6.776;2022-09-01T08:09:06;20.90;1.00
9099;DHT22;4585;51.414;6.776;2022-09-01T08:11:37;20.80;1.00
9099;DHT22;4585;51.414;6.776;2022-09-01T08:14:06;20.80;1.00
9099;DHT22;4585;51.414;6.776;2022-09-01T08:16:36;21.10;1.00
9099;DHT22;4585;51.414;6.776;2022-09-01T08:19:10;21.20;1.00
9099;DHT22;4585;51.414;6.776;2022-09-01T08:21:39;21.30;1.00
9099;DHT22;4585;51.414;6.776;2022-09-01T08:24:05;21.50;1.00
9099;DHT22;4585;51.414;6.776;2022-09-01T08:26:40;21.60;1.00
9099;DHT22;4585;51.414;6.776;2022-09-01T08:29:09;21.70;1.00
9099;DHT22;4585;51.414;6.776;2022-09-01T08:31:36;21.80;1.00
9099;DHT22;4585;51.414;6.776;2022-09-01T08:34:05;21.70;1.00
9099;DHT22;4585;51.414;6.776;2022-09-01T08:36:33;21.70;1.00
9099;DHT22;4585;51.414;6.776;2022-09-01T08:39:07;21.90;1.00
9099;DHT22;4585;51.414;6.776;2022-09-01T08:42:01;22.10;1.00
9099;DHT22;4585;51.414;6.776;2022-09-01T08:44:40;22.30;19.20
9099;DHT22;4585;51.414;6.776;2022-09-01T08:47:11;22.40;85.20
9099;DHT22;4585;51.414;6.776;2022-09-01T08:49:45;22.40;77.30
9099;DHT22;4585;51.414;6.776;2022-09-01T08:52:37;22.50;20.60
9099;DHT22;4585;51.414;6.776;2022-09-01T08:55:12;22.50;26.40
9099;DHT22;4585;51.414;6.776;2022-09-01T08:57:44;22.50;99.90
9099;DHT22;4585;51.414;6.776;2022-09-01T09:00:16;22.50;81.30
9099;DHT22;4585;51.414;6.776;2022-09-01T09:03:11;22.60;52.80
9099;DHT22;4585;51.414;6.776;2022-09-01T09:09:07;22.60;1.00
9099;DHT22;4585;51.414;6.776;2022-09-01T09:17:15;22.90;1.00
9099;DHT22;4585;51.414;6.776;2022-09-01T09:19:44;22.90;1.00
9099;DHT22;4585;51.414;6.776;2022-09-01T09:22:16;23.00;1.00
9099;DHT22;4585;51.414;6.776;2022-09-01T09:27:39;23.00;1.00
9099;DHT22;4585;51.414;6.776;2022-09-01T09:30:10;23.00;1.00
9099;DHT22;4585;51.414;6.776;2022-09-01T09:32:59;23.20;1.00
9099;DHT22;4585;51.414;6.776;2022-09-01T09:35:32;23.30;1.00
9099;DHT22;4585;51.414;6.776;2022-09-01T09:38:20;23.40;1.00
9099;DHT22;4585;51.414;6.776;2022-09-01T09:41:16;23.60;1.00
9099;DHT22;4585;51.414;6.776;2022-09-01T09:43:52;23.60;1.00
9099;DHT22;4585;51.414;6.776;2022-09-01T09:46:36;23.60;1.00
9099;DHT22;4585;51.414;6.776;2022-09-01T09:49:22;23.60;1.00
9099;DHT22;4585;51.414;6.776;2022-09-01T09:51:53;23.50;1.00
9099;DHT22;4585;51.414;6.776;2022-09-01T09:54:32;23.60;1.00
9099;DHT22;4585;51.414;6.776;2022-09-01T09:57:11;23.60;1.00
9099;DHT22;4585;51.414;6.776;2022-09-01T10:05:00;24.00;1.00
9099;DHT22;4585;51.414;6.776;2022-09-01T10:07:30;23.70;1.00
9099;DHT22;4585;51.414;6.776;2022-09-01T10:10:05;23.70;1.00
9099;DHT22;4585;51.414;6.776;2022-09-01T10:12:40;23.60;1.00
9099;DHT22;4585;51.414;6.776;2022-09-01T10:15:08;23.50;1.00
9099;DHT22;4585;51.414;6.776;2022-09-01T10:17:42;23.70;1.00
9099;DHT22;4585;51.414;6.776;2022-09-01T10:20:24;23.80;1.00
9099;DHT22;4585;51.414;6.776;2022-09-01T10:22:55;23.80;1.00
9099;DHT22;4585;51.414;6.776;2022-09-01T10:25:32;23.70;1.00
9099;DHT22;4585;51.414;6.776;2022-09-01T10:28:15;23.80;1.00
9099;DHT22;4585;51.414;6.776;2022-09-01T10:30:46;23.80;1.00
9099;DHT22;4585;51.414;6.776;2022-09-01T10:33:20;23.90;1.00
9099;DHT22;4585;51.414;6.776;2022-09-01T10:35:54;23.90;1.00
9099;DHT22;4585;51.414;6.776;2022-09-01T10:38:28;23.90;1.00
